Time;durP1;ratioP1;P1;durP2;ratioP2;P2;SDS_P1;SDS_P2;PMS_P1;PMS_P2;Temp;Humidity;BMP_temperature;BMP_pressure;BME280_temperature;BME280_humidity;BME280_pressure;Samples;Min_cycle;Max_cycle;Signal;HPM_P1;HPM_P2
2022/02/04 00:24:35;;;;;;;6.93;5.70;;;4.70;99.90;;;;;;6258797;22;20383;-82
2022/02/04 00:27:08;;;;;;;7.53;6.83;;;4.70;99.90;;;;;;6214014;22;20476;-82
2022/02/04 00:29:46;;;;;;;6.20;5.60;;;4.80;99.90;;;;;;6220629;22;20161;-82
2022/02/04 00:32:12;;;;;;;7.27;6.50;;;4.90;99.90;;;;;;6220428;22;20832;-82
2022/02/04 00:34:45;;;;;;;8.63;6.73;;;4.90;99.90;;;;;;6220653;22;20428;-82
2022/02/04 00:39:54;;;;;;;7.40;6.60;;;4.90;99.90;;;;;;6260396;22;21098;-82
2022/02/04 00:42:19;;;;;;;6.60;6.00;;;5.00;99.90;;;;;;6227074;22;20870;-82
2022/02/04 00:44:45;;;;;;;7.30;6.60;;;5.10;99.90;;;;;;6220901;22;20413;-82
2022/02/04 00:47:16;;;;;;;7.60;6.90;;;5.10;99.90;;;;;;6225826;22;20702;-82
2022/02/04 00:50:01;;;;;;;7.90;6.30;;;5.10;99.90;;;;;;6225492;22;20445;-82
2022/02/04 00:55:10;;;;;;;9.23;7.57;;;5.20;99.90;;;;;;6249186;22;20897;-81
2022/02/04 01:06:23;;;;;;;7.87;6.83;;;5.30;99.90;;;;;;6222957;22;20604;-82
2022/02/04 01:28:06;;;;;;;8.03;6.80;;;5.50;99.90;;;;;;6249149;22;20468;-82
2022/02/04 01:30:34;;;;;;;7.67;6.30;;;5.40;99.90;;;;;;6220104;22;20475;-82
2022/02/04 01:33:01;;;;;;;7.27;6.17;;;5.30;99.90;;;;;;6221890;22;20467;-82
2022/02/04 01:35:26;;;;;;;7.40;6.70;;;5.30;99.90;;;;;;6221168;22;20381;-82
2022/02/04 01:37:52;;;;;;;8.47;6.20;;;5.40;99.90;;;;;;6222382;22;20451;-82
2022/02/04 01:40:18;;;;;;;7.70;6.90;;;5.40;99.90;;;;;;6221453;22;20155;-82
2022/02/04 01:42:43;;;;;;;6.70;6.00;;;5.30;99.90;;;;;;6222423;22;20365;-83
2022/02/04 01:45:09;;;;;;;8.10;7.30;;;5.30;99.90;;;;;;6221826;22;20157;-82
2022/02/04 01:47:35;;;;;;;8.50;6.70;;;5.20;99.90;;;;;;6218453;22;20327;-82
2022/02/04 01:50:00;;;;;;;7.73;6.93;;;5.20;99.90;;;;;;6248467;22;20878;-82
2022/02/04 01:52:26;;;;;;;7.30;6.70;;;5.30;99.90;;;;;;6219693;22;20188;-82
2022/02/04 01:54:52;;;;;;;7.63;6.60;;;5.20;99.90;;;;;;6219062;22;20162;-82
2022/02/04 01:57:17;;;;;;;8.50;6.93;;;5.30;99.90;;;;;;6223107;22;20166;-82
2022/02/04 01:59:43;;;;;;;9.50;6.30;;;5.30;99.90;;;;;;6221943;22;20734;-82
2022/02/04 02:02:09;;;;;;;8.00;6.50;;;5.30;99.90;;;;;;6221833;22;20213;-81
2022/02/04 02:04:34;;;;;;;6.90;6.23;;;5.20;99.90;;;;;;6219697;22;20211;-81
2022/02/04 02:07:04;;;;;;;8.60;6.70;;;5.20;99.90;;;;;;6221762;22;20989;-81
2022/02/04 02:09:42;;;;;;;7.93;6.90;;;5.20;99.90;;;;;;6222479;22;20162;-82
2022/02/04 02:12:10;;;;;;;7.57;6.60;;;5.10;99.90;;;;;;6229438;22;20646;-82
2022/02/04 02:14:37;;;;;;;8.20;7.40;;;5.10;99.90;;;;;;6246927;22;20397;-82
2022/02/04 02:39:41;;;;;;;7.53;6.70;;;5.10;99.90;;;;;;6237901;22;20400;-81
2022/02/04 02:42:18;;;;;;;10.40;7.03;;;5.00;99.90;;;;;;6248692;22;20473;-81
2022/02/04 02:50:14;;;;;;;10.53;7.80;;;4.90;99.90;;;;;;6259165;22;20754;-81
2022/02/04 02:58:16;;;;;;;11.17;8.20;;;5.00;99.90;;;;;;6261897;22;20384;-82
2022/02/04 03:03:13;;;;;;;8.10;7.30;;;5.00;99.90;;;;;;6245422;22;20380;-82
2022/02/04 03:05:39;;;;;;;10.00;8.10;;;5.00;99.90;;;;;;6220976;22;20403;-82
2022/02/04 03:08:05;;;;;;;8.87;7.77;;;4.90;99.90;;;;;;6221368;22;21154;-82
2022/02/04 03:10:31;;;;;;;12.60;8.03;;;5.00;99.90;;;;;;6218772;22;20509;-82
2022/02/04 03:12:59;;;;;;;11.50;8.60;;;4.90;99.90;;;;;;6219740;22;20775;-82
2022/02/04 03:15:25;;;;;;;9.50;7.97;;;4.90;99.90;;;;;;6221720;22;20335;-82
2022/02/04 03:18:06;;;;;;;9.40;7.60;;;5.00;99.90;;;;;;6220680;22;21114;-81
2022/02/04 03:20:48;;;;;;;9.03;8.10;;;5.00;99.90;;;;;;6221000;22;20197;-82
2022/02/04 03:23:14;;;;;;;10.80;8.20;;;4.90;99.90;;;;;;6219828;22;20884;-81
2022/02/04 03:25:45;;;;;;;8.80;7.90;;;4.80;99.90;;;;;;6221278;22;20396;-82
2022/02/04 03:28:16;;;;;;;12.07;9.50;;;4.80;99.90;;;;;;6248552;22;20387;-82
2022/02/04 03:30:43;;;;;;;9.67;8.10;;;4.80;99.90;;;;;;6222624;22;20403;-81
2022/02/04 03:33:10;;;;;;;9.37;8.27;;;4.80;99.90;;;;;;6219769;22;20721;-82
2022/02/04 03:35:38;;;;;;;11.83;8.13;;;4.80;99.90;;;;;;6221090;22;20389;-82
2022/02/04 03:38:04;;;;;;;9.70;8.20;;;4.90;99.90;;;;;;6221263;22;21136;-81
2022/02/04 03:40:30;;;;;;;10.47;9.20;;;4.90;99.90;;;;;;6221766;22;20510;-81
2022/02/04 03:42:56;;;;;;;10.77;8.70;;;4.80;99.90;;;;;;6219793;22;20680;-81
2022/02/04 03:45:22;;;;;;;10.90;8.40;;;4.90;99.90;;;;;;6220798;22;21098;-82
2022/02/04 03:47:49;;;;;;;9.57;8.20;;;4.90;99.90;;;;;;6221726;22;20164;-81
2022/02/04 03:50:14;;;;;;;8.93;8.03;;;4.80;99.90;;;;;;6220482;22;20388;-82
2022/02/04 03:52:41;;;;;;;9.70;7.83;;;4.90;99.90;;;;;;6246523;22;20971;-82
2022/02/04 03:55:08;;;;;;;10.20;8.27;;;4.90;99.90;;;;;;6221306;22;20162;-81
2022/02/04 03:57:34;;;;;;;10.50;9.50;;;4.80;99.90;;;;;;6221285;22;20388;-82
2022/02/04 04:00:00;;;;;;;14.57;10.80;;;4.80;99.90;;;;;;6220607;22;20390;-82
2022/02/04 04:02:26;;;;;;;18.20;12.03;;;4.70;99.90;;;;;;6221836;22;20176;-82
2022/02/04 04:04:52;;;;;;;15.00;10.20;;;4.70;99.90;;;;;;6228397;22;20156;-82
2022/02/04 04:07:18;;;;;;;13.57;10.13;;;4.70;99.90;;;;;;6233870;22;20211;-82
2022/02/04 04:09:52;;;;;;;9.00;8.10;;;4.70;99.90;;;;;;6233209;22;20393;-82
2022/02/04 04:12:19;;;;;;;12.20;8.63;;;4.80;99.90;;;;;;6237067;22;20426;-82
2022/02/04 04:14:48;;;;;;;8.40;7.50;;;4.70;99.90;;;;;;6224372;22;20964;-82
2022/02/04 04:17:14;;;;;;;12.30;9.00;;;4.80;99.90;;;;;;6224619;22;20400;-82
2022/02/04 04:19:39;;;;;;;11.07;8.43;;;4.80;99.90;;;;;;6223171;22;20403;-82
2022/02/04 04:22:05;;;;;;;9.10;8.03;;;4.90;99.90;;;;;;6220352;22;20167;-82
2022/02/04 04:24:31;;;;;;;8.60;7.70;;;4.80;99.90;;;;;;6222295;22;20236;-82
2022/02/04 04:26:56;;;;;;;9.37;7.80;;;4.90;99.90;;;;;;6221559;22;21158;-82
2022/02/04 04:29:22;;;;;;;9.30;8.00;;;4.90;99.90;;;;;;6219519;22;20173;-82
2022/02/04 04:31:48;;;;;;;8.73;7.93;;;4.90;99.90;;;;;;6220846;22;20168;-82
2022/02/04 04:34:18;;;;;;;9.77;8.00;;;4.90;99.90;;;;;;6222419;22;20210;-82
2022/02/04 04:36:44;;;;;;;10.70;8.30;;;4.90;99.90;;;;;;6220474;22;20157;-82
2022/02/04 04:39:17;;;;;;;8.50;7.30;;;4.90;99.90;;;;;;6219935;22;20391;-82
2022/02/04 05:30:22;;;;;;;7.40;6.70;;;5.20;99.90;;;;;;6261334;22;20835;-82
2022/02/04 05:32:50;;;;;;;6.80;6.13;;;5.20;99.90;;;;;;6220872;22;20579;-82
2022/02/04 05:35:17;;;;;;;6.77;6.17;;;5.20;99.90;;;;;;6222749;22;20476;-82
2022/02/04 05:37:46;;;;;;;7.40;6.67;;;5.20;99.90;;;;;;6222704;22;20733;-82
2022/02/04 05:40:19;;;;;;;8.20;7.10;;;5.20;99.90;;;;;;6221388;22;20381;-82
2022/02/04 05:42:55;;;;;;;7.60;6.80;;;5.20;99.90;;;;;;6221614;22;20939;-82
2022/02/04 05:45:23;;;;;;;7.93;7.13;;;5.20;99.90;;;;;;6246419;22;20465;-81
2022/02/04 05:47:56;;;;;;;8.73;7.30;;;5.30;99.90;;;;;;6220399;22;20730;-82
2022/02/04 05:50:34;;;;;;;7.33;6.63;;;5.30;99.90;;;;;;6222472;22;20476;-84
2022/02/04 05:53:16;;;;;;;9.53;6.20;;;5.30;99.90;;;;;;6222572;22;20594;-84
2022/02/04 06:01:29;;;;;;;7.70;6.90;;;5.30;99.90;;;;;;6245185;22;20439;-83
2022/02/04 06:06:50;;;;;;;8.40;6.80;;;5.20;99.90;;;;;;6259313;22;20373;-84
2022/02/04 06:09:53;;;;;;;7.67;6.97;;;5.30;99.90;;;;;;6246066;22;20385;-84
2022/02/04 06:22:05;;;;;;;7.90;7.10;;;5.30;99.90;;;;;;6245239;22;20861;-84
2022/02/04 06:23:24;;;;;;;8.70;6.80;;;5.40;99.90;;;;;;6243759;22;20466;-83
2022/02/04 06:25:50;;;;;;;8.50;7.47;;;5.40;99.90;;;;;;6215280;22;20381;-83
2022/02/04 06:28:16;;;;;;;7.67;6.87;;;5.40;99.90;;;;;;6214604;22;20612;-82
2022/02/04 06:30:44;;;;;;;7.40;6.70;;;5.40;99.90;;;;;;6215699;22;20375;-82
2022/02/04 06:33:10;;;;;;;6.80;6.13;;;5.40;99.90;;;;;;6212275;22;20186;-83
2022/02/04 06:35:36;;;;;;;7.20;6.50;;;5.40;99.90;;;;;;6214207;22;20829;-83
2022/02/04 06:38:02;;;;;;;7.70;6.70;;;5.40;99.90;;;;;;6221967;22;20176;-83
2022/02/04 06:40:31;;;;;;;6.83;6.20;;;5.40;99.90;;;;;;6216646;22;20155;-83
2022/02/04 06:43:10;;;;;;;7.67;6.90;;;5.40;99.90;;;;;;6244183;22;20408;-83
2022/02/04 06:45:47;;;;;;;7.90;6.73;;;5.50;99.90;;;;;;6216715;22;20834;-83
2022/02/04 06:48:25;;;;;;;6.80;6.07;;;5.40;99.90;;;;;;6242848;22;20392;-83
2022/02/04 06:51:06;;;;;;;;;;;;;;;;;;;;;
2022/02/04 06:53:32;;;;;;;7.03;6.33;;;5.40;99.90;;;;;;6245676;22;20428;-84
2022/02/04 06:55:58;;;;;;;6.60;5.90;;;5.50;99.90;;;;;;6216097;22;20385;-82
2022/02/04 06:58:29;;;;;;;54.67;41.93;;;5.40;99.90;;;;;;6218785;22;20721;-82
2022/02/04 07:00:57;;;;;;;7.13;6.43;;;5.40;99.90;;;;;;6217002;22;20386;-82
2022/02/04 07:03:23;;;;;;;6.23;5.63;;;5.40;99.90;;;;;;6214672;22;20956;-82
2022/02/04 07:05:56;;;;;;;7.00;6.30;;;5.40;99.90;;;;;;6215967;22;20392;-82
2022/02/04 07:12:03;;;;;;;6.30;5.70;;;5.40;99.90;;;;;;6251829;22;20371;-81
2022/02/04 07:19:47;;;;;;;8.70;7.77;;;5.30;99.90;;;;;;6246069;22;20388;-82
2022/02/04 07:22:20;;;;;;;8.90;7.47;;;5.30;99.90;;;;;;6214613;22;20872;-82
2022/02/04 07:24:56;;;;;;;9.00;7.50;;;5.40;99.90;;;;;;6218189;22;20423;-82
2022/02/04 07:27:29;;;;;;;7.80;7.00;;;5.40;99.90;;;;;;6214121;22;20384;-82
2022/02/04 07:29:56;;;;;;;11.47;7.90;;;5.40;99.90;;;;;;6215502;22;20580;-82
2022/02/04 07:43:04;;;;;;;8.10;7.23;;;5.50;99.90;;;;;;6131586;22;20384;-82
2022/02/04 07:45:53;;;;;;;9.70;8.07;;;5.50;99.90;;;;;;6210389;22;20421;-82
2022/02/04 07:48:19;;;;;;;8.20;7.10;;;5.50;99.90;;;;;;6216917;22;20385;-82
2022/02/04 07:50:53;;;;;;;9.53;8.60;;;5.50;99.90;;;;;;6214874;22;20393;-81
2022/02/04 07:53:37;;;;;;;8.97;7.40;;;5.60;99.90;;;;;;6211408;22;20733;-80
2022/02/04 07:56:19;;;;;;;9.70;7.90;;;5.60;99.90;;;;;;6220260;22;20472;-81
2022/02/04 07:59:08;;;;;;;11.13;8.43;;;5.50;99.90;;;;;;6214654;22;20544;-82
2022/02/04 08:01:46;;;;;;;9.17;8.27;;;5.50;99.90;;;;;;6211945;22;20985;-80
2022/02/04 08:04:23;;;;;;;9.33;8.33;;;5.50;99.90;;;;;;6214349;22;20784;-80
2022/02/04 08:06:59;;;;;;;9.37;7.90;;;5.60;99.90;;;;;;6213722;22;20704;-81
2022/02/04 08:12:26;;;;;;;9.63;8.63;;;5.60;99.90;;;;;;6257152;22;20456;-83
2022/02/04 08:57:04;;;;;;;27.27;24.57;;;7.30;99.90;;;;;;6260027;22;20397;-83
2022/02/04 09:02:29;;;;;;;9.00;8.10;;;7.50;99.90;;;;;;6255903;22;20370;-81
2022/02/04 09:04:58;;;;;;;8.30;7.40;;;7.60;99.90;;;;;;6216934;22;20553;-82
2022/02/04 09:07:34;;;;;;;7.80;6.60;;;7.80;99.90;;;;;;6221959;22;20389;-84
2022/02/04 09:10:10;;;;;;;7.67;6.93;;;8.00;99.90;;;;;;6220658;22;20396;-82
2022/02/04 09:20:29;;;;;;;7.00;6.17;;;7.50;99.90;;;;;;6257750;22;20755;-82
2022/02/04 09:22:55;;;;;;;6.50;5.90;;;7.40;99.90;;;;;;6222469;22;20381;-81
2022/02/04 09:25:26;;;;;;;7.63;6.83;;;7.40;99.90;;;;;;6219224;22;20765;-81
2022/02/04 09:27:52;;;;;;;6.20;5.60;;;7.70;99.90;;;;;;6219162;22;20258;-82
2022/02/04 09:30:20;;;;;;;6.87;6.17;;;7.80;99.90;;;;;;6221131;22;20482;-81
2022/02/04 09:32:54;;;;;;;5.90;5.30;;;7.80;99.90;;;;;;6220684;22;20193;-81
2022/02/04 09:35:31;;;;;;;6.17;5.60;;;7.60;99.90;;;;;;6221342;22;20860;-82
2022/02/04 09:38:04;;;;;;;8.10;5.67;;;7.60;99.90;;;;;;6219009;22;20389;-81
2022/02/04 09:40:30;;;;;;;7.00;6.30;;;7.60;99.90;;;;;;6220521;22;20381;-81
2022/02/04 09:42:56;;;;;;;6.37;5.50;;;7.60;99.90;;;;;;6220455;22;20728;-81
2022/02/04 09:45:39;;;;;;;6.00;5.40;;;7.70;99.90;;;;;;6223231;22;20190;-82
2022/02/04 09:48:09;;;;;;;6.20;5.60;;;7.60;99.90;;;;;;6221199;22;20402;-83
2022/02/04 09:50:42;;;;;;;5.63;5.13;;;7.60;99.90;;;;;;6219357;22;21178;-81
2022/02/04 10:07:56;;;;;;;5.40;4.07;;;7.70;99.90;;;;;;6253200;22;20739;-88
2022/02/04 10:18:50;;;;;;;4.10;3.70;;;7.70;99.90;;;;;;6241301;22;20366;-84
2022/02/04 10:21:16;;;;;;;3.73;3.40;;;7.80;99.90;;;;;;6220124;22;20959;-82
2022/02/04 10:23:55;;;;;;;3.97;3.57;;;7.80;99.90;;;;;;6213983;22;20393;-82
2022/02/04 10:26:21;;;;;;;4.30;3.50;;;8.00;99.90;;;;;;6214649;22;20164;-83
2022/02/04 10:28:48;;;;;;;3.40;3.10;;;8.00;99.90;;;;;;6220658;22;20897;-82
2022/02/04 10:31:37;;;;;;;2.93;2.63;;;7.80;99.90;;;;;;6215360;22;20381;-81
2022/02/04 10:34:10;;;;;;;2.83;2.60;;;7.70;99.90;;;;;;6215243;22;20462;-83
2022/02/04 10:39:43;;;;;;;2.27;1.90;;;7.80;99.90;;;;;;6254888;22;20678;-85
2022/02/04 10:43:02;;;;;;;2.67;2.37;;;7.90;99.90;;;;;;6221754;22;20392;-83
2022/02/04 10:48:30;;;;;;;3.37;3.07;;;8.00;99.90;;;;;;6257219;22;20792;-82
2022/02/04 10:51:25;;;;;;;3.90;3.00;;;7.90;99.90;;;;;;6220082;22;20376;-82
2022/02/04 11:08:16;;;;;;;2.10;2.00;;;8.20;99.90;;;;;;6196014;22;20377;-82
2022/02/04 11:31:03;;;;;;;1.60;1.50;;;7.90;99.90;;;;;;6239436;22;20364;-84
2022/02/04 11:33:44;;;;;;;3.13;2.00;;;8.00;99.90;;;;;;6239810;22;20446;-84
2022/02/04 11:51:51;;;;;;;1.57;1.30;;;8.00;99.90;;;;;;6251571;22;20898;-87
2022/02/04 11:55:19;;;;;;;1.77;1.67;;;7.90;99.90;;;;;;6210085;22;20424;-84
2022/02/04 11:57:35;;;;;;;1.53;1.43;;;7.90;99.90;;;;;;6217162;22;20900;-83
2022/02/04 12:00:26;;;;;;;1.50;1.33;;;7.90;99.90;;;;;;6210935;22;20524;-83
2022/02/04 12:02:54;;;;;;;1.80;1.50;;;8.10;99.90;;;;;;6208355;22;20401;-83
2022/02/04 12:05:20;;;;;;;4.80;2.27;;;8.10;99.90;;;;;;6206419;22;20415;-82
2022/02/04 12:07:51;;;;;;;1.73;1.27;;;8.10;99.90;;;;;;6212177;22;20389;-83
2022/02/04 12:10:30;;;;;;;3.30;1.57;;;8.00;99.90;;;;;;6208705;22;20514;-83
2022/02/04 12:13:03;;;;;;;1.87;1.30;;;8.30;99.90;;;;;;6219523;22;20454;-83
2022/02/04 12:15:35;;;;;;;1.17;1.10;;;8.40;99.90;;;;;;6216304;22;20384;-84
2022/02/04 12:18:34;;;;;;;;;;;;;;;;;;;;;
2022/02/04 12:21:04;;;;;;;1.23;1.13;;;8.40;99.90;;;;;;6229787;22;20377;-82
2022/02/04 12:23:40;;;;;;;0.53;0.50;;;8.30;99.90;;;;;;6208898;22;20384;-81
2022/02/04 12:26:09;;;;;;;0.80;0.80;;;8.50;99.90;;;;;;6208672;22;20662;-81
2022/02/04 12:29:05;;;;;;;1.17;1.17;;;8.60;99.90;;;;;;6208886;22;20427;-83
2022/02/04 12:31:36;;;;;;;1.20;1.10;;;8.50;99.90;;;;;;6211079;22;20926;-82
2022/02/04 12:34:02;;;;;;;1.13;1.07;;;8.30;99.90;;;;;;6209553;22;20445;-82
2022/02/04 12:36:42;;;;;;;1.70;1.60;;;8.20;99.90;;;;;;6209567;22;20393;-83
2022/02/04 12:39:33;;;;;;;1.27;1.17;;;8.10;99.90;;;;;;6207691;22;21031;-82
2022/02/04 12:42:16;;;;;;;1.70;1.60;;;8.20;99.90;;;;;;6196164;22;20389;-83
2022/02/04 12:45:00;;;;;;;1.20;1.10;;;8.10;99.90;;;;;;6217892;22;20645;-83
2022/02/04 12:47:34;;;;;;;1.40;1.30;;;8.00;99.90;;;;;;6223176;22;20525;-83
2022/02/04 12:50:02;;;;;;;1.47;1.37;;;8.00;99.90;;;;;;6214752;22;20385;-83
2022/02/04 12:52:42;;;;;;;1.47;1.37;;;8.10;99.90;;;;;;6207879;22;20436;-82
2022/02/04 12:55:13;;;;;;;1.13;1.10;;;8.00;99.90;;;;;;6235991;22;20445;-82
2022/02/04 12:57:43;;;;;;;1.23;1.00;;;8.10;99.90;;;;;;6211062;22;20723;-83
2022/02/04 13:03:09;;;;;;;2.00;1.27;;;8.30;99.90;;;;;;6251617;22;20710;-84
2022/02/04 13:09:48;;;;;;;1.40;1.30;;;8.10;99.90;;;;;;6249891;22;20815;-88
2022/02/04 13:12:04;;;;;;;1.10;1.00;;;8.20;99.90;;;;;;6238791;22;20669;-87
2022/02/04 13:14:30;;;;;;;1.10;1.00;;;8.20;99.90;;;;;;6211089;22;20801;-87
2022/02/04 13:16:56;;;;;;;0.90;0.90;;;8.20;99.90;;;;;;6211223;22;20835;-87
2022/02/04 13:19:24;;;;;;;1.00;0.97;;;8.10;99.90;;;;;;6213900;22;20546;-86
2022/02/04 13:21:53;;;;;;;1.10;1.00;;;8.10;99.90;;;;;;6211553;22;20158;-87
2022/02/04 13:24:22;;;;;;;1.80;1.10;;;8.10;99.90;;;;;;6212186;22;20388;-86
2022/02/04 13:26:50;;;;;;;1.50;1.37;;;8.10;99.90;;;;;;6212461;22;20439;-86
2022/02/04 13:29:29;;;;;;;1.07;1.03;;;8.10;99.90;;;;;;6213349;22;20388;-87
2022/02/04 13:32:19;;;;;;;1.93;1.00;;;8.00;99.90;;;;;;6212544;22;20473;-87
2022/02/04 13:34:48;;;;;;;1.43;1.33;;;8.00;99.90;;;;;;6225253;22;20625;-87
2022/02/04 13:37:31;;;;;;;1.30;1.20;;;8.10;99.90;;;;;;6223536;22;20738;-86
2022/02/04 13:40:03;;;;;;;1.20;1.10;;;8.10;99.90;;;;;;6214169;22;20384;-89
2022/02/04 13:42:45;;;;;;;3.67;1.23;;;8.10;99.90;;;;;;6213935;22;20409;-85
2022/02/04 13:45:37;;;;;;;1.20;1.10;;;7.90;99.90;;;;;;6211271;22;20405;-85
2022/02/04 13:48:38;;;;;;;1.20;1.10;;;7.70;99.90;;;;;;6239399;22;20375;-85
2022/02/04 13:56:43;;;;;;;1.17;1.00;;;7.60;99.90;;;;;;6222337;22;20454;-81
2022/02/04 13:59:32;;;;;;;0.87;0.87;;;7.70;99.90;;;;;;6215196;22;20863;-82
2022/02/04 14:02:10;;;;;;;0.80;0.80;;;7.70;99.90;;;;;;6213639;22;20415;-83
2022/02/04 14:04:52;;;;;;;0.70;0.70;;;7.70;99.90;;;;;;6212873;22;20446;-83
2022/02/04 14:07:20;;;;;;;1.00;1.00;;;7.60;99.90;;;;;;6242527;22;20401;-83
2022/02/04 14:09:54;;;;;;;1.07;1.00;;;7.50;99.90;;;;;;6212954;22;20396;-82
2022/02/04 14:12:22;;;;;;;1.30;0.90;;;7.50;99.90;;;;;;6212435;22;20921;-83
2022/02/04 14:15:00;;;;;;;0.90;0.90;;;7.60;99.90;;;;;;6212880;22;21214;-83
2022/02/04 14:17:31;;;;;;;1.17;0.93;;;7.60;99.90;;;;;;6217740;22;21031;-83
2022/02/04 14:19:57;;;;;;;0.70;0.60;;;7.60;99.90;;;;;;6213446;22;20739;-83
2022/02/04 14:22:23;;;;;;;0.90;0.90;;;7.50;99.90;;;;;;6212676;22;20389;-83
2022/02/04 14:24:50;;;;;;;1.47;1.17;;;7.40;99.90;;;;;;6210843;22;20449;-83
2022/02/04 14:27:16;;;;;;;0.90;0.90;;;7.40;99.90;;;;;;6213234;22;20161;-83
2022/02/04 14:30:05;;;;;;;0.83;0.83;;;7.40;99.90;;;;;;6213385;22;20389;-83
2022/02/04 14:32:48;;;;;;;0.60;0.60;;;7.40;99.90;;;;;;6238569;22;20528;-83
2022/02/04 14:35:28;;;;;;;0.50;0.40;;;7.30;99.90;;;;;;6213769;22;20388;-83
2022/02/04 14:51:48;;;;;;;2.53;0.50;;;7.20;99.90;;;;;;6241390;22;20821;-83
2022/02/04 14:54:32;;;;;;;2.10;0.80;;;7.10;99.90;;;;;;6211130;22;20439;-82
2022/02/04 15:02:14;;;;;;;2.53;0.80;;;7.10;99.90;;;;;;6247618;22;20358;-83
2022/02/04 15:04:49;;;;;;;0.40;0.40;;;7.10;99.90;;;;;;6209175;22;20677;-83
2022/02/04 15:07:15;;;;;;;0.60;0.60;;;7.10;99.90;;;;;;6212117;22;20975;-83
2022/02/04 15:09:55;;;;;;;0.60;0.60;;;7.10;99.90;;;;;;6210816;22;20732;-83
2022/02/04 15:12:39;;;;;;;2.20;0.50;;;7.10;99.90;;;;;;6188998;22;20429;-86
2022/02/04 15:15:38;;;;;;;1.00;0.70;;;7.00;99.90;;;;;;6213331;22;20795;-87
2022/02/04 15:44:23;;;;;;;1.93;1.10;;;7.20;99.90;;;;;;6124125;23;20832;-87
2022/02/04 16:04:02;;;;;;;0.90;0.80;;;7.30;99.90;;;;;;6264076;22;21271;-88
2022/02/04 16:06:43;;;;;;;0.53;0.53;;;7.30;99.90;;;;;;6248207;22;20772;-84
2022/02/04 16:09:10;;;;;;;0.87;0.70;;;7.30;99.90;;;;;;6252736;22;20847;-84
2022/02/04 16:17:00;;;;;;;1.20;1.10;;;7.10;99.90;;;;;;6250036;22;20153;-84
2022/02/04 16:19:29;;;;;;;0.80;0.67;;;7.00;99.90;;;;;;6221555;22;20482;-86
2022/02/04 16:30:11;;;;;;;0.83;0.83;;;7.00;99.90;;;;;;6288576;22;20373;-85
2022/02/04 16:32:38;;;;;;;1.17;0.70;;;7.00;99.90;;;;;;6251163;22;20771;-86
2022/02/04 16:35:05;;;;;;;1.50;0.70;;;7.00;99.90;;;;;;6275598;22;20416;-86
2022/02/04 16:37:36;;;;;;;0.97;0.77;;;7.00;99.90;;;;;;6248270;22;20400;-83
2022/02/04 16:40:16;;;;;;;0.80;0.80;;;7.00;99.90;;;;;;6246826;22;20400;-84
2022/02/04 16:42:43;;;;;;;0.80;0.80;;;7.00;99.90;;;;;;6228636;22;20398;-84
2022/02/04 16:45:32;;;;;;;0.93;0.80;;;7.00;99.90;;;;;;6218487;22;20573;-85
2022/02/04 16:47:58;;;;;;;0.77;0.77;;;7.00;99.90;;;;;;6237114;22;20504;-85
2022/02/04 16:50:24;;;;;;;0.70;0.70;;;7.00;99.90;;;;;;6217456;22;20413;-85
2022/02/04 16:52:52;;;;;;;1.07;1.00;;;7.00;99.90;;;;;;6251171;22;20189;-85
2022/02/04 16:55:19;;;;;;;1.50;1.27;;;7.00;99.90;;;;;;6245718;22;20510;-86
2022/02/04 16:57:47;;;;;;;0.93;0.90;;;7.00;99.90;;;;;;6243530;22;20443;-87
2022/02/04 17:00:22;;;;;;;1.30;0.83;;;7.00;99.90;;;;;;6241251;22;20417;-88
2022/02/04 17:02:56;;;;;;;1.40;1.10;;;7.00;99.90;;;;;;6220574;22;20854;-86
2022/02/04 17:05:26;;;;;;;1.07;1.07;;;6.90;99.90;;;;;;6244543;22;20383;-87
2022/02/04 17:08:12;;;;;;;0.80;0.80;;;6.90;99.90;;;;;;6247285;22;20794;-87
2022/02/04 17:11:03;;;;;;;0.77;0.77;;;6.90;99.90;;;;;;6243404;22;20391;-85
2022/02/04 17:13:33;;;;;;;0.90;0.90;;;6.90;99.90;;;;;;6267366;22;20451;-85
2022/02/04 17:16:03;;;;;;;1.23;1.07;;;6.90;99.90;;;;;;6269786;22;20399;-84
2022/02/04 17:18:30;;;;;;;2.90;1.50;;;6.80;99.90;;;;;;6252440;22;20652;-83
2022/02/04 17:20:57;;;;;;;2.17;1.73;;;6.80;99.90;;;;;;6242822;22;20471;-84
2022/02/04 17:23:30;;;;;;;2.37;1.73;;;6.70;99.90;;;;;;6240113;22;20399;-84
2022/02/04 17:25:58;;;;;;;1.87;1.10;;;6.60;99.90;;;;;;6245878;22;20824;-84
2022/02/04 17:28:36;;;;;;;2.63;1.33;;;6.70;99.90;;;;;;6241578;22;20872;-86
2022/02/04 17:31:06;;;;;;;1.57;1.47;;;6.80;99.90;;;;;;6268765;22;20376;-85
2022/02/04 17:33:32;;;;;;;1.20;1.10;;;6.80;99.90;;;;;;6244157;22;20463;-83
2022/02/04 17:36:00;;;;;;;1.30;1.20;;;6.80;99.90;;;;;;6257357;22;20541;-82
2022/02/04 17:38:29;;;;;;;2.90;1.37;;;6.80;99.90;;;;;;6239168;22;20269;-85
2022/02/04 17:40:57;;;;;;;1.57;1.30;;;6.80;99.90;;;;;;6246367;22;20459;-86
2022/02/04 17:43:26;;;;;;;1.10;1.10;;;6.90;99.90;;;;;;6239736;22;20420;-85
2022/02/04 17:45:52;;;;;;;1.50;1.40;;;6.90;99.90;;;;;;6214437;22;20495;-84
2022/02/04 17:48:29;;;;;;;1.50;1.40;;;6.90;99.90;;;;;;6217148;22;20917;-84
2022/02/04 17:51:25;;;;;;;1.20;1.10;;;6.90;99.90;;;;;;6229102;22;20866;-89
2022/02/04 17:54:38;;;;;;;1.10;1.10;;;7.00;99.90;;;;;;6265175;22;20793;-88
2022/02/04 18:10:05;;;;;;;;;;;;;;;;;;;;;
2022/02/04 18:13:10;;;;;;;;;;;;;;;;;;;;;
2022/02/04 18:15:48;;;;;;;6.27;5.00;;;7.00;99.90;;;;;;6270110;22;20388;-84
2022/02/04 18:18:33;;;;;;;2.20;1.83;;;6.90;99.90;;;;;;6247308;22;20839;-85
2022/02/04 18:21:23;;;;;;;4.20;1.93;;;6.90;99.90;;;;;;6271574;22;20368;-84
2022/02/04 18:23:58;;;;;;;1.80;1.70;;;6.90;99.90;;;;;;6272011;22;20370;-84
2022/02/04 18:26:37;;;;;;;2.20;1.70;;;6.90;99.90;;;;;;6246900;22;20810;-85
2022/02/04 18:29:06;;;;;;;11.90;10.40;;;6.90;99.90;;;;;;6252875;22;20539;-84
2022/02/04 18:31:45;;;;;;;4.73;2.77;;;6.90;99.90;;;;;;6248543;22;20697;-85
2022/02/04 18:34:16;;;;;;;2.87;2.23;;;6.90;99.90;;;;;;6247052;22;20449;-85
2022/02/04 18:36:45;;;;;;;2.17;1.93;;;7.00;99.90;;;;;;6272084;22;20392;-84
2022/02/04 18:42:25;;;;;;;5.03;4.53;;;7.00;99.90;;;;;;6284890;22;20372;-84
2022/02/04 18:45:08;;;;;;;2.13;2.00;;;7.00;99.90;;;;;;6268341;22;20437;-85
2022/02/04 18:47:59;;;;;;;1.47;1.37;;;7.10;99.90;;;;;;6245041;22;20445;-86
2022/02/04 18:50:47;;;;;;;1.67;1.40;;;7.00;99.90;;;;;;6246044;22;20462;-85
2022/02/04 18:58:44;;;;;;;1.67;1.50;;;7.00;99.90;;;;;;6275409;22;20417;-85
2022/02/04 19:01:24;;;;;;;3.63;3.30;;;7.00;99.90;;;;;;6275448;22;20852;-86
2022/02/04 19:03:55;;;;;;;7.60;6.90;;;7.00;99.90;;;;;;6248347;22;20459;-85
2022/02/04 19:06:48;;;;;;;0.80;0.80;;;7.00;99.90;;;;;;6246286;22;20390;-86
2022/02/04 19:09:33;;;;;;;1.60;1.27;;;7.10;99.90;;;;;;6252227;22;20757;-85
2022/02/04 19:12:17;;;;;;;2.13;1.93;;;7.20;99.90;;;;;;6225820;22;20398;-85
2022/02/04 19:14:54;;;;;;;3.10;2.80;;;7.20;99.90;;;;;;6250257;22;20963;-85
2022/02/04 19:17:34;;;;;;;1.70;1.60;;;7.20;99.90;;;;;;6245035;22;20813;-83
2022/02/04 19:20:10;;;;;;;43.57;37.63;;;7.20;99.90;;;;;;6242038;22;20711;-83
2022/02/04 19:22:52;;;;;;;1.23;1.13;;;7.20;99.90;;;;;;6270802;22;20372;-83
2022/02/04 19:25:29;;;;;;;2.03;1.57;;;7.20;99.90;;;;;;6241438;22;20390;-84
2022/02/04 19:28:08;;;;;;;1.40;1.10;;;7.20;99.90;;;;;;6241775;22;20388;-84
2022/02/04 19:30:46;;;;;;;1.23;1.20;;;7.20;99.90;;;;;;6243229;22;20389;-87
2022/02/04 19:33:12;;;;;;;1.47;1.20;;;7.20;99.90;;;;;;6241275;22;20459;-82
2022/02/04 19:35:39;;;;;;;1.20;1.10;;;7.20;99.90;;;;;;6242342;22;20397;-83
2022/02/04 19:38:20;;;;;;;1.60;1.10;;;7.20;99.90;;;;;;6241838;22;20507;-83
2022/02/04 19:40:46;;;;;;;1.63;1.30;;;7.20;99.90;;;;;;6242830;22;20392;-84
2022/02/04 19:43:16;;;;;;;1.50;1.40;;;7.20;99.90;;;;;;6241768;22;20504;-84
2022/02/04 19:45:52;;;;;;;1.40;1.30;;;7.20;99.90;;;;;;6245929;22;20720;-84
2022/02/04 19:48:29;;;;;;;1.30;1.20;;;7.20;99.90;;;;;;6246406;22;20577;-83
2022/02/04 20:25:41;;;;;;;1.57;1.43;;;6.90;99.90;;;;;;6270507;22;20374;-82
2022/02/04 20:33:45;;;;;;;2.17;1.97;;;6.80;99.90;;;;;;6273336;22;21158;-84
2022/02/04 20:36:11;;;;;;;2.00;1.90;;;6.80;99.90;;;;;;6249944;22;20392;-83
2022/02/04 20:38:47;;;;;;;1.40;1.30;;;6.80;99.90;;;;;;6246084;22;20464;-83
2022/02/04 20:41:14;;;;;;;2.47;1.57;;;6.80;99.90;;;;;;6248610;22;20275;-83
2022/02/04 20:43:40;;;;;;;2.70;1.40;;;6.90;99.90;;;;;;6247918;22;20400;-82
2022/02/04 20:46:06;;;;;;;1.23;1.17;;;7.00;99.90;;;;;;6248934;22;20628;-83
2022/02/04 20:48:36;;;;;;;1.20;1.20;;;7.00;99.90;;;;;;6249717;22;20713;-82
2022/02/04 20:51:14;;;;;;;;;;;;;;;;;;;;;
2022/02/04 20:53:41;;;;;;;1.10;1.00;;;7.20;99.90;;;;;;6275116;22;20584;-82
2022/02/04 20:56:08;;;;;;;1.20;1.10;;;7.20;99.90;;;;;;6223200;22;20741;-82
2022/02/04 20:58:36;;;;;;;1.03;1.00;;;7.30;99.90;;;;;;6251757;22;20894;-81
2022/02/04 21:01:11;;;;;;;1.20;1.13;;;7.30;99.90;;;;;;6247739;22;21004;-81
2022/02/04 21:03:41;;;;;;;1.10;1.10;;;7.30;99.90;;;;;;6253697;22;20414;-82
2022/02/04 21:06:41;;;;;;;1.40;1.30;;;7.30;99.90;;;;;;6245817;22;20484;-81
2022/02/04 21:09:30;;;;;;;1.33;1.23;;;7.40;99.90;;;;;;6273614;22;20752;-82
2022/02/04 21:16:59;;;;;;;1.00;1.00;;;7.40;99.90;;;;;;6273361;22;20862;-81
2022/02/04 21:19:25;;;;;;;1.30;0.90;;;7.40;99.90;;;;;;6241538;22;20464;-81